sensor_id;sensor_type;location;lat;lon;timestamp;temperature;humidity
6118;DHT22;3089;48.202;11.510;2023-01-29T00:01:59;0.40;99.90
6118;DHT22;3089;48.202;11.510;2023-01-29T00:04:27;0.50;99.90
6118;DHT22;3089;48.202;11.510;2023-01-29T00:06:55;0.50;99.90
6118;DHT22;3089;48.202;11.510;2023-01-29T00:09:23;0.70;99.90
6118;DHT22;3089;48.202;11.510;2023-01-29T00:11:51;0.80;99.90
6118;DHT22;3089;48.202;11.510;2023-01-29T00:14:19;0.60;99.90
6118;DHT22;3089;48.202;11.510;2023-01-29T00:16:48;0.60;99.90
6118;DHT22;3089;48.202;11.510;2023-01-29T00:19:16;0.60;99.90
6118;DHT22;3089;48.202;11.510;2023-01-29T00:21:45;0.70;99.90
6118;DHT22;3089;48.202;11.510;2023-01-29T00:24:13;0.70;99.90
6118;DHT22;3089;48.202;11.510;2023-01-29T00:26:40;0.70;99.90
6118;DHT22;3089;48.202;11.510;2023-01-29T00:29:09;0.70;99.90
6118;DHT22;3089;48.202;11.510;2023-01-29T00:31:37;0.80;99.90
6118;DHT22;3089;48.202;11.510;2023-01-29T00:34:06;0.80;99.90
6118;DHT22;3089;48.202;11.510;2023-01-29T00:36:34;0.70;99.90
6118;DHT22;3089;48.202;11.510;2023-01-29T00:39:02;0.80;99.90
6118;DHT22;3089;48.202;11.510;2023-01-29T00:41:36;0.80;99.90
6118;DHT22;3089;48.202;11.510;2023-01-29T00:44:22;0.80;99.90
6118;DHT22;3089;48.202;11.510;2023-01-29T00:47:08;0.80;99.90
6118;DHT22;3089;48.202;11.510;2023-01-29T00:49:57;0.70;99.90
6118;DHT22;3089;48.202;11.510;2023-01-29T00:52:26;0.80;99.90
6118;DHT22;3089;48.202;11.510;2023-01-29T00:54:56;0.80;99.90
6118;DHT22;3089;48.202;11.510;2023-01-29T00:57:25;0.80;99.90
6118;DHT22;3089;48.202;11.510;2023-01-29T00:59:54;0.80;99.90
6118;DHT22;3089;48.202;11.510;2023-01-29T01:02:22;0.80;99.90
6118;DHT22;3089;48.202;11.510;2023-01-29T01:05:10;0.80;99.90
6118;DHT22;3089;48.202;11.510;2023-01-29T01:07:39;0.80;99.90
6118;DHT22;3089;48.202;11.510;2023-01-29T01:10:09;0.70;99.90
6118;DHT22;3089;48.202;11.510;2023-01-29T01:12:53;0.70;99.90
6118;DHT22;3089;48.202;11.510;2023-01-29T01:15:22;0.70;99.90
6118;DHT22;3089;48.202;11.510;2023-01-29T01:17:54;0.80;99.90
6118;DHT22;3089;48.202;11.510;2023-01-29T01:20:25;0.70;99.90
6118;DHT22;3089;48.202;11.510;2023-01-29T01:22:53;0.70;99.90
6118;DHT22;3089;48.202;11.510;2023-01-29T01:25:22;0.70;99.90
6118;DHT22;3089;48.202;11.510;2023-01-29T01:27:51;0.70;99.90
6118;DHT22;3089;48.202;11.510;2023-01-29T01:30:20;0.70;99.90
6118;DHT22;3089;48.202;11.510;2023-01-29T01:32:48;0.70;99.90
6118;DHT22;3089;48.202;11.510;2023-01-29T01:35:17;0.70;99.90
6118;DHT22;3089;48.202;11.510;2023-01-29T01:37:46;0.70;99.90
6118;DHT22;3089;48.202;11.510;2023-01-29T01:40:16;0.80;99.90
6118;DHT22;3089;48.202;11.510;2023-01-29T01:42:49;0.70;99.90
6118;DHT22;3089;48.202;11.510;2023-01-29T01:45:20;0.80;99.90
6118;DHT22;3089;48.202;11.510;2023-01-29T01:47:50;0.80;99.90
6118;DHT22;3089;48.202;11.510;2023-01-29T01:50:22;0.70;99.90
6118;DHT22;3089;48.202;11.510;2023-01-29T01:52:55;0.70;99.90
6118;DHT22;3089;48.202;11.510;2023-01-29T01:55:26;0.70;99.90
6118;DHT22;3089;48.202;11.510;2023-01-29T01:57:59;0.70;99.90
6118;DHT22;3089;48.202;11.510;2023-01-29T02:00:29;0.80;99.90
6118;DHT22;3089;48.202;11.510;2023-01-29T02:02:57;0.70;99.90
6118;DHT22;3089;48.202;11.510;2023-01-29T02:05:43;0.70;99.90
6118;DHT22;3089;48.202;11.510;2023-01-29T02:08:35;0.70;99.90
6118;DHT22;3089;48.202;11.510;2023-01-29T02:11:23;0.70;99.90
6118;DHT22;3089;48.202;11.510;2023-01-29T02:13:51;0.60;99.90
6118;DHT22;3089;48.202;11.510;2023-01-29T02:16:20;0.60;99.90
6118;DHT22;3089;48.202;11.510;2023-01-29T02:18:48;0.70;99.90
6118;DHT22;3089;48.202;11.510;2023-01-29T02:21:42;0.70;99.90
6118;DHT22;3089;48.202;11.510;2023-01-29T02:24:44;0.80;99.90
6118;DHT22;3089;48.202;11.510;2023-01-29T02:27:19;0.70;99.90
6118;DHT22;3089;48.202;11.510;2023-01-29T02:29:57;0.70;99.90
6118;DHT22;3089;48.202;11.510;2023-01-29T02:32:32;0.70;99.90
6118;DHT22;3089;48.202;11.510;2023-01-29T02:35:10;0.70;99.90
6118;DHT22;3089;48.202;11.510;2023-01-29T02:37:59;0.70;99.90
6118;DHT22;3089;48.202;11.510;2023-01-29T02:40:32;0.70;99.90
6118;DHT22;3089;48.202;11.510;2023-01-29T02:43:07;0.70;99.90
6118;DHT22;3089;48.202;11.510;2023-01-29T02:45:47;0.70;99.90
6118;DHT22;3089;48.202;11.510;2023-01-29T02:48:18;0.70;99.90
6118;DHT22;3089;48.202;11.510;2023-01-29T02:50:49;0.70;99.90
6118;DHT22;3089;48.202;11.510;2023-01-29T02:53:24;0.70;99.90
6118;DHT22;3089;48.202;11.510;2023-01-29T02:55:57;0.70;99.90
6118;DHT22;3089;48.202;11.510;2023-01-29T02:58:30;0.70;99.90
6118;DHT22;3089;48.202;11.510;2023-01-29T03:01:03;0.70;99.90
6118;DHT22;3089;48.202;11.510;2023-01-29T03:03:36;0.70;99.90
6118;DHT22;3089;48.202;11.510;2023-01-29T03:06:07;0.60;99.90
6118;DHT22;3089;48.202;11.510;2023-01-29T03:08:41;0.60;99.90
6118;DHT22;3089;48.202;11.510;2023-01-29T03:11:12;0.60;99.90
6118;DHT22;3089;48.202;11.510;2023-01-29T03:13:44;0.60;99.90
6118;DHT22;3089;48.202;11.510;2023-01-29T03:16:20;0.70;99.90
6118;DHT22;3089;48.202;11.510;2023-01-29T03:18:54;0.70;99.90
6118;DHT22;3089;48.202;11.510;2023-01-29T03:21:28;0.60;99.90
6118;DHT22;3089;48.202;11.510;2023-01-29T03:24:25;0.70;99.90
6118;DHT22;3089;48.202;11.510;2023-01-29T03:27:17;0.70;99.90
6118;DHT22;3089;48.202;11.510;2023-01-29T03:30:04;0.50;99.90
6118;DHT22;3089;48.202;11.510;2023-01-29T03:32:53;0.60;99.90
6118;DHT22;3089;48.202;11.510;2023-01-29T03:35:23;0.60;99.90
6118;DHT22;3089;48.202;11.510;2023-01-29T03:38:01;0.60;99.90
6118;DHT22;3089;48.202;11.510;2023-01-29T03:40:35;0.60;99.90
6118;DHT22;3089;48.202;11.510;2023-01-29T03:43:09;0.60;99.90
6118;DHT22;3089;48.202;11.510;2023-01-29T03:45:42;0.60;99.90
6118;DHT22;3089;48.202;11.510;2023-01-29T03:48:21;0.60;99.90
6118;DHT22;3089;48.202;11.510;2023-01-29T03:50:55;0.70;99.90
6118;DHT22;3089;48.202;11.510;2023-01-29T03:53:28;0.70;99.90
6118;DHT22;3089;48.202;11.510;2023-01-29T03:56:02;0.70;99.90
6118;DHT22;3089;48.202;11.510;2023-01-29T03:58:36;0.60;99.90
6118;DHT22;3089;48.202;11.510;2023-01-29T04:01:11;0.60;99.90
6118;DHT22;3089;48.202;11.510;2023-01-29T04:03:48;0.60;99.90
6118;DHT22;3089;48.202;11.510;2023-01-29T04:06:22;0.60;99.90
6118;DHT22;3089;48.202;11.510;2023-01-29T04:08:55;0.60;99.90
6118;DHT22;3089;48.202;11.510;2023-01-29T04:11:24;0.60;99.90
6118;DHT22;3089;48.202;11.510;2023-01-29T04:13:54;0.60;99.90
6118;DHT22;3089;48.202;11.510;2023-01-29T04:16:26;0.60;99.90
6118;DHT22;3089;48.202;11.510;2023-01-29T04:18:56;0.60;99.90
6118;DHT22;3089;48.202;11.510;2023-01-29T04:21:25;0.60;99.90
6118;DHT22;3089;48.202;11.510;2023-01-29T04:23:53;0.60;99.90
6118;DHT22;3089;48.202;11.510;2023-01-29T04:26:28;0.60;99.90
6118;DHT22;3089;48.202;11.510;2023-01-29T04:29:12;0.60;99.90
6118;DHT22;3089;48.202;11.510;2023-01-29T04:31:46;0.60;99.90
6118;DHT22;3089;48.202;11.510;2023-01-29T04:34:22;0.60;99.90
6118;DHT22;3089;48.202;11.510;2023-01-29T04:37:01;0.60;99.90
6118;DHT22;3089;48.202;11.510;2023-01-29T04:39:39;0.60;99.90
6118;DHT22;3089;48.202;11.510;2023-01-29T04:42:14;0.60;99.90
6118;DHT22;3089;48.202;11.510;2023-01-29T04:44:54;0.60;99.90
6118;DHT22;3089;48.202;11.510;2023-01-29T04:47:31;0.60;99.90
6118;DHT22;3089;48.202;11.510;2023-01-29T04:50:10;0.60;99.90
6118;DHT22;3089;48.202;11.510;2023-01-29T04:52:46;0.60;99.90
6118;DHT22;3089;48.202;11.510;2023-01-29T04:55:19;0.60;99.90
6118;DHT22;3089;48.202;11.510;2023-01-29T04:57:52;0.60;99.90
6118;DHT22;3089;48.202;11.510;2023-01-29T05:00:24;0.60;99.90
6118;DHT22;3089;48.202;11.510;2023-01-29T05:02:55;0.60;99.90
6118;DHT22;3089;48.202;11.510;2023-01-29T05:05:25;0.50;99.90
6118;DHT22;3089;48.202;11.510;2023-01-29T05:07:54;0.40;99.90
6118;DHT22;3089;48.202;11.510;2023-01-29T05:10:24;0.50;99.90
6118;DHT22;3089;48.202;11.510;2023-01-29T05:12:57;0.50;99.90
6118;DHT22;3089;48.202;11.510;2023-01-29T05:15:30;0.20;99.90
6118;DHT22;3089;48.202;11.510;2023-01-29T05:18:00;0.20;99.90
6118;DHT22;3089;48.202;11.510;2023-01-29T05:20:32;0.10;99.90
6118;DHT22;3089;48.202;11.510;2023-01-29T05:23:01;0.30;99.90
6118;DHT22;3089;48.202;11.510;2023-01-29T05:25:30;0.20;99.90
6118;DHT22;3089;48.202;11.510;2023-01-29T05:27:58;-0.10;99.90
6118;DHT22;3089;48.202;11.510;2023-01-29T05:30:34;0.30;99.90
6118;DHT22;3089;48.202;11.510;2023-01-29T05:33:03;0.20;99.90
6118;DHT22;3089;48.202;11.510;2023-01-29T05:35:33;0.30;99.90
6118;DHT22;3089;48.202;11.510;2023-01-29T05:38:00;0.40;99.90
6118;DHT22;3089;48.202;11.510;2023-01-29T05:40:29;0.40;99.90
6118;DHT22;3089;48.202;11.510;2023-01-29T05:42:56;0.50;99.90
6118;DHT22;3089;48.202;11.510;2023-01-29T05:45:24;0.40;99.90
6118;DHT22;3089;48.202;11.510;2023-01-29T05:47:55;0.40;99.90
6118;DHT22;3089;48.202;11.510;2023-01-29T05:50:26;0.40;99.90
6118;DHT22;3089;48.202;11.510;2023-01-29T05:52:59;0.10;99.90
6118;DHT22;3089;48.202;11.510;2023-01-29T05:55:28;0.20;99.90
6118;DHT22;3089;48.202;11.510;2023-01-29T05:57:56;0.30;99.90
6118;DHT22;3089;48.202;11.510;2023-01-29T06:00:24;0.40;99.90
6118;DHT22;3089;48.202;11.510;2023-01-29T06:02:52;0.40;99.90
6118;DHT22;3089;48.202;11.510;2023-01-29T06:05:20;0.50;99.90
6118;DHT22;3089;48.202;11.510;2023-01-29T06:07:47;0.50;99.90
6118;DHT22;3089;48.202;11.510;2023-01-29T06:10:17;0.50;99.90
6118;DHT22;3089;48.202;11.510;2023-01-29T06:12:45;0.40;99.90
6118;DHT22;3089;48.202;11.510;2023-01-29T06:15:13;0.40;99.90
6118;DHT22;3089;48.202;11.510;2023-01-29T06:17:42;0.30;99.90
6118;DHT22;3089;48.202;11.510;2023-01-29T06:20:10;0.40;99.90
6118;DHT22;3089;48.202;11.510;2023-01-29T06:22:38;0.20;99.90
6118;DHT22;3089;48.202;11.510;2023-01-29T06:25:07;0.40;99.90
6118;DHT22;3089;48.202;11.510;2023-01-29T06:27:36;0.40;99.90
6118;DHT22;3089;48.202;11.510;2023-01-29T06:30:05;0.00;99.90
6118;DHT22;3089;48.202;11.510;2023-01-29T06:32:33;-0.20;99.90
6118;DHT22;3089;48.202;11.510;2023-01-29T06:35:01;0.00;99.90
6118;DHT22;3089;48.202;11.510;2023-01-29T06:37:29;0.30;99.90
6118;DHT22;3089;48.202;11.510;2023-01-29T06:39:57;0.40;99.90
6118;DHT22;3089;48.202;11.510;2023-01-29T06:42:25;0.50;99.90
6118;DHT22;3089;48.202;11.510;2023-01-29T06:44:55;0.50;99.90
6118;DHT22;3089;48.202;11.510;2023-01-29T06:47:23;0.50;99.90
6118;DHT22;3089;48.202;11.510;2023-01-29T06:49:51;0.50;99.90
6118;DHT22;3089;48.202;11.510;2023-01-29T06:52:19;0.50;99.90
6118;DHT22;3089;48.202;11.510;2023-01-29T06:54:47;0.40;99.90
6118;DHT22;3089;48.202;11.510;2023-01-29T06:57:14;0.40;99.90
6118;DHT22;3089;48.202;11.510;2023-01-29T06:59:42;0.30;99.90
6118;DHT22;3089;48.202;11.510;2023-01-29T07:02:12;0.50;99.90
6118;DHT22;3089;48.202;11.510;2023-01-29T07:04:39;0.50;99.90
6118;DHT22;3089;48.202;11.510;2023-01-29T07:07:08;0.50;99.90
6118;DHT22;3089;48.202;11.510;2023-01-29T07:09:39;0.60;99.90
6118;DHT22;3089;48.202;11.510;2023-01-29T07:12:07;0.50;99.90
6118;DHT22;3089;48.202;11.510;2023-01-29T07:14:35;0.50;99.90
6118;DHT22;3089;48.202;11.510;2023-01-29T07:17:03;0.40;99.90
6118;DHT22;3089;48.202;11.510;2023-01-29T07:19:32;0.30;99.90
6118;DHT22;3089;48.202;11.510;2023-01-29T07:22:00;0.30;99.90
6118;DHT22;3089;48.202;11.510;2023-01-29T07:24:29;0.40;99.90
6118;DHT22;3089;48.202;11.510;2023-01-29T07:26:57;0.40;99.90
6118;DHT22;3089;48.202;11.510;2023-01-29T07:29:25;0.40;99.90
6118;DHT22;3089;48.202;11.510;2023-01-29T07:31:52;0.50;99.90
6118;DHT22;3089;48.202;11.510;2023-01-29T07:34:20;0.50;99.90
6118;DHT22;3089;48.202;11.510;2023-01-29T07:36:52;0.50;99.90
6118;DHT22;3089;48.202;11.510;2023-01-29T07:39:19;0.50;99.90
6118;DHT22;3089;48.202;11.510;2023-01-29T07:41:48;0.60;99.90
6118;DHT22;3089;48.202;11.510;2023-01-29T07:44:15;0.60;99.90
6118;DHT22;3089;48.202;11.510;2023-01-29T07:46:43;0.50;99.90
6118;DHT22;3089;48.202;11.510;2023-01-29T07:49:11;0.50;99.90
6118;DHT22;3089;48.202;11.510;2023-01-29T07:51:39;0.60;99.90
6118;DHT22;3089;48.202;11.510;2023-01-29T07:54:08;0.60;99.90
6118;DHT22;3089;48.202;11.510;2023-01-29T07:56:36;0.50;99.90
6118;DHT22;3089;48.202;11.510;2023-01-29T07:59:03;0.60;99.90
6118;DHT22;3089;48.202;11.510;2023-01-29T08:01:31;0.50;99.90
6118;DHT22;3089;48.202;11.510;2023-01-29T08:03:59;0.40;99.90
6118;DHT22;3089;48.202;11.510;2023-01-29T08:06:27;0.50;99.90
6118;DHT22;3089;48.202;11.510;2023-01-29T08:08:55;0.50;99.90
6118;DHT22;3089;48.202;11.510;2023-01-29T08:11:24;0.50;99.90
6118;DHT22;3089;48.202;11.510;2023-01-29T08:13:52;0.60;99.90
6118;DHT22;3089;48.202;11.510;2023-01-29T08:16:20;0.70;99.90
6118;DHT22;3089;48.202;11.510;2023-01-29T08:18:47;0.70;99.90
6118;DHT22;3089;48.202;11.510;2023-01-29T08:21:15;0.60;99.90
6118;DHT22;3089;48.202;11.510;2023-01-29T08:23:43;0.60;99.90
6118;DHT22;3089;48.202;11.510;2023-01-29T08:26:11;0.50;99.90
6118;DHT22;3089;48.202;11.510;2023-01-29T08:28:40;0.50;99.90
6118;DHT22;3089;48.202;11.510;2023-01-29T08:31:13;0.50;99.90
6118;DHT22;3089;48.202;11.510;2023-01-29T08:33:41;0.50;99.90
6118;DHT22;3089;48.202;11.510;2023-01-29T08:36:09;0.50;99.90
6118;DHT22;3089;48.202;11.510;2023-01-29T08:38:37;0.60;99.90
6118;DHT22;3089;48.202;11.510;2023-01-29T08:41:05;0.50;99.90
6118;DHT22;3089;48.202;11.510;2023-01-29T08:43:33;0.40;99.90
6118;DHT22;3089;48.202;11.510;2023-01-29T08:46:04;0.40;99.90
6118;DHT22;3089;48.202;11.510;2023-01-29T08:48:32;0.50;99.90
6118;DHT22;3089;48.202;11.510;2023-01-29T08:51:01;0.50;99.90
6118;DHT22;3089;48.202;11.510;2023-01-29T08:53:30;0.50;99.90
6118;DHT22;3089;48.202;11.510;2023-01-29T08:55:57;0.50;99.90
6118;DHT22;3089;48.202;11.510;2023-01-29T08:58:25;0.50;99.90
6118;DHT22;3089;48.202;11.510;2023-01-29T09:00:53;0.50;99.90
6118;DHT22;3089;48.202;11.510;2023-01-29T09:03:22;0.60;99.90
6118;DHT22;3089;48.202;11.510;2023-01-29T09:05:50;0.50;99.90
6118;DHT22;3089;48.202;11.510;2023-01-29T09:08:18;0.50;99.90
6118;DHT22;3089;48.202;11.510;2023-01-29T09:10:45;0.60;99.90
6118;DHT22;3089;48.202;11.510;2023-01-29T09:13:13;0.60;99.90
6118;DHT22;3089;48.202;11.510;2023-01-29T09:15:41;0.70;99.90
6118;DHT22;3089;48.202;11.510;2023-01-29T09:18:09;0.70;99.90
6118;DHT22;3089;48.202;11.510;2023-01-29T09:20:38;0.60;99.90
6118;DHT22;3089;48.202;11.510;2023-01-29T09:23:07;0.50;99.90
6118;DHT22;3089;48.202;11.510;2023-01-29T09:25:36;0.60;99.90
6118;DHT22;3089;48.202;11.510;2023-01-29T09:28:04;0.60;99.90
6118;DHT22;3089;48.202;11.510;2023-01-29T09:30:32;0.40;99.90
6118;DHT22;3089;48.202;11.510;2023-01-29T09:33:03;0.20;99.90
6118;DHT22;3089;48.202;11.510;2023-01-29T09:35:31;0.50;99.90
6118;DHT22;3089;48.202;11.510;2023-01-29T09:38:00;0.60;99.90
6118;DHT22;3089;48.202;11.510;2023-01-29T09:40:33;0.50;99.90
6118;DHT22;3089;48.202;11.510;2023-01-29T09:43:05;0.60;99.90
6118;DHT22;3089;48.202;11.510;2023-01-29T09:45:34;0.60;99.90
6118;DHT22;3089;48.202;11.510;2023-01-29T09:48:03;0.40;99.90
6118;DHT22;3089;48.202;11.510;2023-01-29T09:50:36;0.60;99.90
6118;DHT22;3089;48.202;11.510;2023-01-29T09:53:13;0.70;99.90
6118;DHT22;3089;48.202;11.510;2023-01-29T09:55:48;0.60;99.90
6118;DHT22;3089;48.202;11.510;2023-01-29T09:58:20;0.60;99.90
6118;DHT22;3089;48.202;11.510;2023-01-29T10:00:58;0.60;99.90
6118;DHT22;3089;48.202;11.510;2023-01-29T10:03:46;0.60;99.90
6118;DHT22;3089;48.202;11.510;2023-01-29T10:06:22;0.70;99.90
6118;DHT22;3089;48.202;11.510;2023-01-29T10:12:02;0.60;99.90
6118;DHT22;3089;48.202;11.510;2023-01-29T10:14:41;0.70;99.90
6118;DHT22;3089;48.202;11.510;2023-01-29T10:17:25;0.70;99.90
6118;DHT22;3089;48.202;11.510;2023-01-29T10:20:09;0.80;99.90
6118;DHT22;3089;48.202;11.510;2023-01-29T10:22:52;0.70;99.90
6118;DHT22;3089;48.202;11.510;2023-01-29T10:25:23;0.60;99.90
6118;DHT22;3089;48.202;11.510;2023-01-29T10:27:53;0.30;99.90
6118;DHT22;3089;48.202;11.510;2023-01-29T10:30:29;0.50;99.90
6118;DHT22;3089;48.202;11.510;2023-01-29T10:33:01;0.30;99.90
6118;DHT22;3089;48.202;11.510;2023-01-29T10:35:32;0.40;99.90
6118;DHT22;3089;48.202;11.510;2023-01-29T10:38:14;0.60;99.90
6118;DHT22;3089;48.202;11.510;2023-01-29T10:40:46;0.50;99.90
6118;DHT22;3089;48.202;11.510;2023-01-29T10:43:23;0.60;99.90
6118;DHT22;3089;48.202;11.510;2023-01-29T10:46:02;0.50;99.90
6118;DHT22;3089;48.202;11.510;2023-01-29T10:48:42;0.40;99.90
6118;DHT22;3089;48.202;11.510;2023-01-29T10:51:26;0.30;99.90
6118;DHT22;3089;48.202;11.510;2023-01-29T10:54:12;0.60;99.90
6118;DHT22;3089;48.202;11.510;2023-01-29T10:56:50;0.50;99.90
6118;DHT22;3089;48.202;11.510;2023-01-29T10:59:36;0.70;99.90
6118;DHT22;3089;48.202;11.510;2023-01-29T11:02:14;0.70;99.90
6118;DHT22;3089;48.202;11.510;2023-01-29T11:04:44;0.80;99.90
6118;DHT22;3089;48.202;11.510;2023-01-29T11:07:13;0.70;99.90
6118;DHT22;3089;48.202;11.510;2023-01-29T11:09:45;0.80;99.90
6118;DHT22;3089;48.202;11.510;2023-01-29T11:12:17;0.90;99.90
6118;DHT22;3089;48.202;11.510;2023-01-29T11:14:52;0.70;99.90
6118;DHT22;3089;48.202;11.510;2023-01-29T11:17:23;0.80;99.90
6118;DHT22;3089;48.202;11.510;2023-01-29T11:19:52;0.90;99.90
6118;DHT22;3089;48.202;11.510;2023-01-29T11:22:22;0.90;99.90
6118;DHT22;3089;48.202;11.510;2023-01-29T11:25:06;0.90;99.90
6118;DHT22;3089;48.202;11.510;2023-01-29T11:27:42;0.90;99.90
6118;DHT22;3089;48.202;11.510;2023-01-29T11:30:23;1.00;99.90
6118;DHT22;3089;48.202;11.510;2023-01-29T11:32:59;0.90;99.90
6118;DHT22;3089;48.202;11.510;2023-01-29T11:35:27;1.00;99.90
6118;DHT22;3089;48.202;11.510;2023-01-29T11:38:05;0.60;99.90
6118;DHT22;3089;48.202;11.510;2023-01-29T11:40:40;0.90;99.90
6118;DHT22;3089;48.202;11.510;2023-01-29T11:43:18;1.00;99.90
6118;DHT22;3089;48.202;11.510;2023-01-29T11:45:50;1.10;99.90
6118;DHT22;3089;48.202;11.510;2023-01-29T11:48:19;1.10;99.90
6118;DHT22;3089;48.202;11.510;2023-01-29T11:50:52;1.10;99.90
6118;DHT22;3089;48.202;11.510;2023-01-29T11:53:25;1.10;99.90
6118;DHT22;3089;48.202;11.510;2023-01-29T11:55:54;0.60;99.90
6118;DHT22;3089;48.202;11.510;2023-01-29T11:58:26;0.90;99.90
6118;DHT22;3089;48.202;11.510;2023-01-29T12:00:56;1.00;99.90
6118;DHT22;3089;48.202;11.510;2023-01-29T12:03:31;1.10;99.90
6118;DHT22;3089;48.202;11.510;2023-01-29T12:06:04;1.10;99.90
6118;DHT22;3089;48.202;11.510;2023-01-29T12:08:36;1.10;99.90
6118;DHT22;3089;48.202;11.510;2023-01-29T12:11:09;1.20;99.90
6118;DHT22;3089;48.202;11.510;2023-01-29T12:13:37;1.10;99.90
6118;DHT22;3089;48.202;11.510;2023-01-29T12:16:20;1.20;99.90
6118;DHT22;3089;48.202;11.510;2023-01-29T12:18:53;1.20;99.90
6118;DHT22;3089;48.202;11.510;2023-01-29T12:21:28;1.20;99.90
6118;DHT22;3089;48.202;11.510;2023-01-29T12:24:01;1.10;99.90
6118;DHT22;3089;48.202;11.510;2023-01-29T12:26:33;1.10;99.90
6118;DHT22;3089;48.202;11.510;2023-01-29T12:29:22;1.10;99.90
6118;DHT22;3089;48.202;11.510;2023-01-29T12:31:58;1.10;99.90
6118;DHT22;3089;48.202;11.510;2023-01-29T12:34:34;1.10;99.90
6118;DHT22;3089;48.202;11.510;2023-01-29T12:37:12;1.00;99.90
6118;DHT22;3089;48.202;11.510;2023-01-29T12:39:43;0.80;99.90
6118;DHT22;3089;48.202;11.510;2023-01-29T12:42:15;0.90;99.90
6118;DHT22;3089;48.202;11.510;2023-01-29T12:44:47;1.00;99.90
6118;DHT22;3089;48.202;11.510;2023-01-29T12:47:25;1.10;99.90
6118;DHT22;3089;48.202;11.510;2023-01-29T12:49:57;1.10;99.90
6118;DHT22;3089;48.202;11.510;2023-01-29T12:52:36;1.10;99.90
6118;DHT22;3089;48.202;11.510;2023-01-29T12:55:12;1.10;99.90
6118;DHT22;3089;48.202;11.510;2023-01-29T12:57:46;1.10;99.90
6118;DHT22;3089;48.202;11.510;2023-01-29T13:00:18;1.10;99.90
6118;DHT22;3089;48.202;11.510;2023-01-29T13:02:53;1.10;99.90
6118;DHT22;3089;48.202;11.510;2023-01-29T13:05:25;1.10;99.90
6118;DHT22;3089;48.202;11.510;2023-01-29T13:07:57;1.10;99.90
6118;DHT22;3089;48.202;11.510;2023-01-29T13:10:31;1.10;99.90
6118;DHT22;3089;48.202;11.510;2023-01-29T13:13:04;1.10;99.90
6118;DHT22;3089;48.202;11.510;2023-01-29T13:15:35;1.10;99.90
6118;DHT22;3089;48.202;11.510;2023-01-29T13:18:30;1.10;99.90
6118;DHT22;3089;48.202;11.510;2023-01-29T13:21:00;1.10;99.90
6118;DHT22;3089;48.202;11.510;2023-01-29T13:23:33;1.10;99.90
6118;DHT22;3089;48.202;11.510;2023-01-29T13:26:01;1.10;99.90
6118;DHT22;3089;48.202;11.510;2023-01-29T13:28:29;1.20;99.90
6118;DHT22;3089;48.202;11.510;2023-01-29T13:31:12;1.10;99.90
6118;DHT22;3089;48.202;11.510;2023-01-29T13:33:43;1.00;99.90
6118;DHT22;3089;48.202;11.510;2023-01-29T13:36:24;1.10;99.90
6118;DHT22;3089;48.202;11.510;2023-01-29T13:38:57;1.10;99.90
6118;DHT22;3089;48.202;11.510;2023-01-29T13:41:34;1.10;99.90
6118;DHT22;3089;48.202;11.510;2023-01-29T13:44:04;1.10;99.90
6118;DHT22;3089;48.202;11.510;2023-01-29T13:46:38;1.10;99.90
6118;DHT22;3089;48.202;11.510;2023-01-29T13:49:32;1.10;99.90
6118;DHT22;3089;48.202;11.510;2023-01-29T13:52:20;1.20;99.90
6118;DHT22;3089;48.202;11.510;2023-01-29T13:54:53;1.20;99.90
6118;DHT22;3089;48.202;11.510;2023-01-29T14:00:48;1.20;99.90
6118;DHT22;3089;48.202;11.510;2023-01-29T14:03:50;1.10;99.90
6118;DHT22;3089;48.202;11.510;2023-01-29T14:06:49;1.10;99.90
6118;DHT22;3089;48.202;11.510;2023-01-29T14:12:47;1.10;99.90
6118;DHT22;3089;48.202;11.510;2023-01-29T14:15:27;1.10;99.90
6118;DHT22;3089;48.202;11.510;2023-01-29T14:17:58;1.10;99.90
6118;DHT22;3089;48.202;11.510;2023-01-29T14:20:31;1.10;99.90
6118;DHT22;3089;48.202;11.510;2023-01-29T14:23:21;1.10;99.90
6118;DHT22;3089;48.202;11.510;2023-01-29T14:25:50;1.10;99.90
6118;DHT22;3089;48.202;11.510;2023-01-29T14:28:21;1.10;99.90
6118;DHT22;3089;48.202;11.510;2023-01-29T14:30:50;1.10;99.90
6118;DHT22;3089;48.202;11.510;2023-01-29T14:33:25;1.10;99.90
6118;DHT22;3089;48.202;11.510;2023-01-29T14:35:55;1.00;99.90
6118;DHT22;3089;48.202;11.510;2023-01-29T14:38:27;0.80;99.90
6118;DHT22;3089;48.202;11.510;2023-01-29T14:41:12;0.90;99.90
6118;DHT22;3089;48.202;11.510;2023-01-29T14:43:41;1.00;99.90
6118;DHT22;3089;48.202;11.510;2023-01-29T14:46:41;1.00;99.90
6118;DHT22;3089;48.202;11.510;2023-01-29T14:49:09;1.00;99.90
6118;DHT22;3089;48.202;11.510;2023-01-29T14:51:40;0.90;99.90
6118;DHT22;3089;48.202;11.510;2023-01-29T14:54:21;1.00;99.90
6118;DHT22;3089;48.202;11.510;2023-01-29T14:56:57;0.90;99.90
6118;DHT22;3089;48.202;11.510;2023-01-29T14:59:31;1.00;99.90
6118;DHT22;3089;48.202;11.510;2023-01-29T15:02:02;1.00;99.90
6118;DHT22;3089;48.202;11.510;2023-01-29T15:04:37;1.00;99.90
6118;DHT22;3089;48.202;11.510;2023-01-29T15:07:14;1.00;99.90
6118;DHT22;3089;48.202;11.510;2023-01-29T15:09:48;1.00;99.90
6118;DHT22;3089;48.202;11.510;2023-01-29T15:12:30;1.00;99.90
6118;DHT22;3089;48.202;11.510;2023-01-29T15:15:05;1.00;99.90
6118;DHT22;3089;48.202;11.510;2023-01-29T15:17:40;1.00;99.90
6118;DHT22;3089;48.202;11.510;2023-01-29T15:20:26;1.00;99.90
6118;DHT22;3089;48.202;11.510;2023-01-29T15:22:55;0.90;99.90
6118;DHT22;3089;48.202;11.510;2023-01-29T15:25:25;0.80;99.90
6118;DHT22;3089;48.202;11.510;2023-01-29T15:27:55;0.60;99.90
6118;DHT22;3089;48.202;11.510;2023-01-29T15:30:28;0.70;99.90
6118;DHT22;3089;48.202;11.510;2023-01-29T15:32:58;0.70;99.90
6118;DHT22;3089;48.202;11.510;2023-01-29T15:35:30;0.60;99.90
6118;DHT22;3089;48.202;11.510;2023-01-29T15:38:02;0.60;99.90
6118;DHT22;3089;48.202;11.510;2023-01-29T15:40:32;0.80;99.90
6118;DHT22;3089;48.202;11.510;2023-01-29T15:43:00;0.90;99.90
6118;DHT22;3089;48.202;11.510;2023-01-29T15:45:29;0.90;99.90
6118;DHT22;3089;48.202;11.510;2023-01-29T15:48:03;0.90;99.90
6118;DHT22;3089;48.202;11.510;2023-01-29T15:50:36;0.70;99.90
6118;DHT22;3089;48.202;11.510;2023-01-29T15:53:08;0.80;99.90
6118;DHT22;3089;48.202;11.510;2023-01-29T15:55:41;0.80;99.90
6118;DHT22;3089;48.202;11.510;2023-01-29T15:58:14;0.90;99.90
6118;DHT22;3089;48.202;11.510;2023-01-29T16:00:49;0.50;99.90
6118;DHT22;3089;48.202;11.510;2023-01-29T16:03:20;0.70;99.90
6118;DHT22;3089;48.202;11.510;2023-01-29T16:05:49;0.70;99.90
6118;DHT22;3089;48.202;11.510;2023-01-29T16:08:20;0.80;99.90
6118;DHT22;3089;48.202;11.510;2023-01-29T16:10:54;0.70;99.90
6118;DHT22;3089;48.202;11.510;2023-01-29T16:13:24;0.70;99.90
6118;DHT22;3089;48.202;11.510;2023-01-29T16:15:54;0.70;99.90
6118;DHT22;3089;48.202;11.510;2023-01-29T16:18:27;0.70;99.90
6118;DHT22;3089;48.202;11.510;2023-01-29T16:20:57;0.70;99.90
6118;DHT22;3089;48.202;11.510;2023-01-29T16:23:27;0.70;99.90
6118;DHT22;3089;48.202;11.510;2023-01-29T16:26:04;0.80;99.90
6118;DHT22;3089;48.202;11.510;2023-01-29T16:28:38;0.80;99.90
6118;DHT22;3089;48.202;11.510;2023-01-29T16:31:06;0.80;99.90
6118;DHT22;3089;48.202;11.510;2023-01-29T16:33:35;0.80;99.90
6118;DHT22;3089;48.202;11.510;2023-01-29T16:36:11;0.80;99.90
6118;DHT22;3089;48.202;11.510;2023-01-29T16:38:40;0.80;99.90
6118;DHT22;3089;48.202;11.510;2023-01-29T16:41:17;0.70;99.90
6118;DHT22;3089;48.202;11.510;2023-01-29T16:43:57;0.70;99.90
6118;DHT22;3089;48.202;11.510;2023-01-29T16:46:32;0.70;99.90
6118;DHT22;3089;48.202;11.510;2023-01-29T16:49:01;0.70;99.90